sensor_id;sensor_type;location;lat;lon;timestamp;P1;durP1;ratioP1;P2;durP2;ratioP2
78183;SDS011;67442;44.570;18.610;2023-08-20T00:00:27;17.08;;;9.82;;
78183;SDS011;67442;44.570;18.610;2023-08-20T00:02:58;16.50;;;9.30;;
78183;SDS011;67442;44.570;18.610;2023-08-20T00:05:30;20.92;;;10.10;;
78183;SDS011;67442;44.570;18.610;2023-08-20T00:07:58;19.88;;;10.15;;
78183;SDS011;67442;44.570;18.610;2023-08-20T00:10:30;19.83;;;10.20;;
78183;SDS011;67442;44.570;18.610;2023-08-20T00:12:58;17.08;;;9.43;;
78183;SDS011;67442;44.570;18.610;2023-08-20T00:15:25;15.88;;;9.52;;
78183;SDS011;67442;44.570;18.610;2023-08-20T00:17:56;20.40;;;10.05;;
78183;SDS011;67442;44.570;18.610;2023-08-20T00:20:24;22.02;;;10.57;;
78183;SDS011;67442;44.570;18.610;2023-08-20T00:22:54;15.98;;;9.70;;
78183;SDS011;67442;44.570;18.610;2023-08-20T00:25:23;16.20;;;9.45;;
78183;SDS011;67442;44.570;18.610;2023-08-20T00:27:50;17.90;;;10.20;;
78183;SDS011;67442;44.570;18.610;2023-08-20T00:30:20;15.25;;;9.32;;
78183;SDS011;67442;44.570;18.610;2023-08-20T00:32:48;21.05;;;9.15;;
78183;SDS011;67442;44.570;18.610;2023-08-20T00:35:16;16.73;;;9.43;;
78183;SDS011;67442;44.570;18.610;2023-08-20T00:37:43;16.95;;;9.20;;
78183;SDS011;67442;44.570;18.610;2023-08-20T00:40:15;18.15;;;9.43;;
78183;SDS011;67442;44.570;18.610;2023-08-20T00:42:41;18.98;;;9.55;;
78183;SDS011;67442;44.570;18.610;2023-08-20T00:45:10;15.82;;;8.98;;
78183;SDS011;67442;44.570;18.610;2023-08-20T00:47:37;18.20;;;9.25;;
78183;SDS011;67442;44.570;18.610;2023-08-20T00:50:04;18.95;;;9.98;;
78183;SDS011;67442;44.570;18.610;2023-08-20T00:52:36;15.68;;;9.38;;
78183;SDS011;67442;44.570;18.610;2023-08-20T00:55:08;14.88;;;9.40;;
78183;SDS011;67442;44.570;18.610;2023-08-20T00:57:36;16.13;;;9.30;;
78183;SDS011;67442;44.570;18.610;2023-08-20T01:00:04;15.45;;;9.02;;
78183;SDS011;67442;44.570;18.610;2023-08-20T01:02:37;15.73;;;8.63;;
78183;SDS011;67442;44.570;18.610;2023-08-20T01:05:05;21.63;;;9.98;;
78183;SDS011;67442;44.570;18.610;2023-08-20T01:07:43;15.43;;;8.98;;
78183;SDS011;67442;44.570;18.610;2023-08-20T01:13:10;15.10;;;9.40;;
78183;SDS011;67442;44.570;18.610;2023-08-20T01:15:41;14.57;;;8.68;;
78183;SDS011;67442;44.570;18.610;2023-08-20T01:18:08;17.45;;;9.32;;
78183;SDS011;67442;44.570;18.610;2023-08-20T01:20:41;15.30;;;8.90;;
78183;SDS011;67442;44.570;18.610;2023-08-20T01:23:22;17.05;;;9.60;;
78183;SDS011;67442;44.570;18.610;2023-08-20T01:26:20;13.45;;;8.63;;
78183;SDS011;67442;44.570;18.610;2023-08-20T01:28:56;13.07;;;8.05;;
78183;SDS011;67442;44.570;18.610;2023-08-20T01:31:28;15.52;;;8.75;;
78183;SDS011;67442;44.570;18.610;2023-08-20T01:33:58;16.02;;;8.90;;
78183;SDS011;67442;44.570;18.610;2023-08-20T01:36:25;15.48;;;8.98;;
78183;SDS011;67442;44.570;18.610;2023-08-20T01:38:56;15.48;;;8.95;;
78183;SDS011;67442;44.570;18.610;2023-08-20T01:41:27;16.08;;;8.45;;
78183;SDS011;67442;44.570;18.610;2023-08-20T01:43:55;15.95;;;8.90;;
78183;SDS011;67442;44.570;18.610;2023-08-20T01:46:26;16.20;;;8.93;;
78183;SDS011;67442;44.570;18.610;2023-08-20T01:48:53;13.57;;;8.15;;
78183;SDS011;67442;44.570;18.610;2023-08-20T01:51:21;16.00;;;8.90;;
78183;SDS011;67442;44.570;18.610;2023-08-20T01:53:52;16.42;;;8.73;;
78183;SDS011;67442;44.570;18.610;2023-08-20T01:56:19;14.35;;;8.70;;
78183;SDS011;67442;44.570;18.610;2023-08-20T01:58:50;15.23;;;9.40;;
78183;SDS011;67442;44.570;18.610;2023-08-20T02:01:21;17.38;;;9.05;;
78183;SDS011;67442;44.570;18.610;2023-08-20T02:03:49;14.38;;;8.07;;
78183;SDS011;67442;44.570;18.610;2023-08-20T02:06:16;12.88;;;8.00;;
78183;SDS011;67442;44.570;18.610;2023-08-20T02:08:44;14.18;;;8.68;;
78183;SDS011;67442;44.570;18.610;2023-08-20T02:11:15;16.48;;;9.18;;
78183;SDS011;67442;44.570;18.610;2023-08-20T02:13:42;14.32;;;8.90;;
78183;SDS011;67442;44.570;18.610;2023-08-20T02:16:10;14.68;;;8.80;;
78183;SDS011;67442;44.570;18.610;2023-08-20T02:18:38;14.43;;;8.10;;
78183;SDS011;67442;44.570;18.610;2023-08-20T02:21:05;14.90;;;9.02;;
78183;SDS011;67442;44.570;18.610;2023-08-20T02:23:32;13.98;;;8.45;;
78183;SDS011;67442;44.570;18.610;2023-08-20T02:25:59;13.45;;;7.88;;
78183;SDS011;67442;44.570;18.610;2023-08-20T02:28:27;11.80;;;7.57;;
78183;SDS011;67442;44.570;18.610;2023-08-20T02:30:55;13.40;;;7.78;;
78183;SDS011;67442;44.570;18.610;2023-08-20T02:33:23;14.98;;;8.93;;
78183;SDS011;67442;44.570;18.610;2023-08-20T02:35:49;13.25;;;7.68;;
78183;SDS011;67442;44.570;18.610;2023-08-20T02:38:17;15.73;;;7.72;;
78183;SDS011;67442;44.570;18.610;2023-08-20T02:40:44;13.85;;;7.78;;
78183;SDS011;67442;44.570;18.610;2023-08-20T02:43:11;14.38;;;8.15;;
78183;SDS011;67442;44.570;18.610;2023-08-20T02:45:39;16.15;;;8.70;;
78183;SDS011;67442;44.570;18.610;2023-08-20T02:48:11;12.77;;;7.78;;
78183;SDS011;67442;44.570;18.610;2023-08-20T02:50:39;12.95;;;7.82;;
78183;SDS011;67442;44.570;18.610;2023-08-20T02:53:05;12.95;;;8.52;;
78183;SDS011;67442;44.570;18.610;2023-08-20T02:55:33;14.75;;;8.80;;
78183;SDS011;67442;44.570;18.610;2023-08-20T02:58:00;12.93;;;7.82;;
78183;SDS011;67442;44.570;18.610;2023-08-20T03:00:33;14.57;;;8.00;;
78183;SDS011;67442;44.570;18.610;2023-08-20T03:03:05;13.05;;;7.82;;
78183;SDS011;67442;44.570;18.610;2023-08-20T03:05:36;13.55;;;7.88;;
78183;SDS011;67442;44.570;18.610;2023-08-20T03:08:03;12.18;;;7.82;;
78183;SDS011;67442;44.570;18.610;2023-08-20T03:10:30;12.52;;;7.18;;
78183;SDS011;67442;44.570;18.610;2023-08-20T03:12:58;15.18;;;8.05;;
78183;SDS011;67442;44.570;18.610;2023-08-20T03:15:27;11.70;;;7.13;;
78183;SDS011;67442;44.570;18.610;2023-08-20T03:17:54;11.93;;;7.22;;
78183;SDS011;67442;44.570;18.610;2023-08-20T03:20:25;13.88;;;7.20;;
78183;SDS011;67442;44.570;18.610;2023-08-20T03:22:53;13.00;;;8.07;;
78183;SDS011;67442;44.570;18.610;2023-08-20T03:25:25;12.77;;;7.63;;
78183;SDS011;67442;44.570;18.610;2023-08-20T03:27:52;13.48;;;7.78;;
78183;SDS011;67442;44.570;18.610;2023-08-20T03:30:20;12.93;;;7.45;;
78183;SDS011;67442;44.570;18.610;2023-08-20T03:32:46;12.48;;;7.38;;
78183;SDS011;67442;44.570;18.610;2023-08-20T03:35:13;12.57;;;7.82;;
78183;SDS011;67442;44.570;18.610;2023-08-20T03:37:41;12.48;;;7.15;;
78183;SDS011;67442;44.570;18.610;2023-08-20T03:40:12;14.07;;;7.90;;
78183;SDS011;67442;44.570;18.610;2023-08-20T03:42:41;11.70;;;7.07;;
78183;SDS011;67442;44.570;18.610;2023-08-20T03:45:12;12.25;;;7.07;;
78183;SDS011;67442;44.570;18.610;2023-08-20T03:47:39;11.00;;;6.88;;
78183;SDS011;67442;44.570;18.610;2023-08-20T03:50:12;10.43;;;6.78;;
78183;SDS011;67442;44.570;18.610;2023-08-20T03:52:39;11.75;;;7.47;;
78183;SDS011;67442;44.570;18.610;2023-08-20T03:55:08;12.80;;;7.10;;
78183;SDS011;67442;44.570;18.610;2023-08-20T03:57:40;13.43;;;7.63;;
78183;SDS011;67442;44.570;18.610;2023-08-20T04:00:08;10.15;;;7.00;;
78183;SDS011;67442;44.570;18.610;2023-08-20T04:02:37;12.93;;;7.32;;
78183;SDS011;67442;44.570;18.610;2023-08-20T04:05:04;14.18;;;7.50;;
78183;SDS011;67442;44.570;18.610;2023-08-20T04:07:32;12.02;;;7.20;;
78183;SDS011;67442;44.570;18.610;2023-08-20T04:09:59;11.55;;;6.95;;
78183;SDS011;67442;44.570;18.610;2023-08-20T04:12:27;10.57;;;7.15;;
78183;SDS011;67442;44.570;18.610;2023-08-20T04:14:54;10.50;;;6.88;;
78183;SDS011;67442;44.570;18.610;2023-08-20T04:17:21;11.55;;;7.07;;
78183;SDS011;67442;44.570;18.610;2023-08-20T04:19:48;13.15;;;6.90;;
78183;SDS011;67442;44.570;18.610;2023-08-20T04:22:16;11.93;;;6.80;;
78183;SDS011;67442;44.570;18.610;2023-08-20T04:24:46;11.45;;;7.03;;
78183;SDS011;67442;44.570;18.610;2023-08-20T04:27:13;11.20;;;6.90;;
78183;SDS011;67442;44.570;18.610;2023-08-20T04:29:45;10.60;;;6.85;;
78183;SDS011;67442;44.570;18.610;2023-08-20T04:32:15;12.15;;;6.90;;
78183;SDS011;67442;44.570;18.610;2023-08-20T04:34:43;12.82;;;6.68;;
78183;SDS011;67442;44.570;18.610;2023-08-20T04:37:16;11.27;;;6.45;;
78183;SDS011;67442;44.570;18.610;2023-08-20T04:39:43;11.25;;;6.93;;
78183;SDS011;67442;44.570;18.610;2023-08-20T04:42:10;11.05;;;6.80;;
78183;SDS011;67442;44.570;18.610;2023-08-20T04:44:37;10.88;;;6.78;;
78183;SDS011;67442;44.570;18.610;2023-08-20T04:47:05;9.60;;;6.45;;
78183;SDS011;67442;44.570;18.610;2023-08-20T04:49:43;10.82;;;6.68;;
78183;SDS011;67442;44.570;18.610;2023-08-20T04:52:10;9.75;;;6.53;;
78183;SDS011;67442;44.570;18.610;2023-08-20T04:54:41;10.77;;;6.45;;
78183;SDS011;67442;44.570;18.610;2023-08-20T04:57:09;8.80;;;6.15;;
78183;SDS011;67442;44.570;18.610;2023-08-20T04:59:36;8.98;;;5.82;;
78183;SDS011;67442;44.570;18.610;2023-08-20T05:02:04;12.10;;;6.03;;
78183;SDS011;67442;44.570;18.610;2023-08-20T05:04:31;11.25;;;6.10;;
78183;SDS011;67442;44.570;18.610;2023-08-20T05:06:58;8.57;;;5.85;;
78183;SDS011;67442;44.570;18.610;2023-08-20T05:09:26;9.02;;;5.85;;
78183;SDS011;67442;44.570;18.610;2023-08-20T05:11:53;8.82;;;5.50;;
78183;SDS011;67442;44.570;18.610;2023-08-20T05:14:21;9.18;;;6.25;;
78183;SDS011;67442;44.570;18.610;2023-08-20T05:16:48;8.65;;;5.80;;
78183;SDS011;67442;44.570;18.610;2023-08-20T05:19:16;7.82;;;4.80;;
78183;SDS011;67442;44.570;18.610;2023-08-20T05:21:43;9.13;;;5.45;;
78183;SDS011;67442;44.570;18.610;2023-08-20T05:24:11;9.20;;;6.00;;
78183;SDS011;67442;44.570;18.610;2023-08-20T05:26:37;10.57;;;6.18;;
78183;SDS011;67442;44.570;18.610;2023-08-20T05:29:09;10.23;;;5.55;;
78183;SDS011;67442;44.570;18.610;2023-08-20T05:31:40;8.77;;;5.00;;
78183;SDS011;67442;44.570;18.610;2023-08-20T05:34:07;9.88;;;5.53;;
78183;SDS011;67442;44.570;18.610;2023-08-20T05:36:38;7.55;;;5.10;;
78183;SDS011;67442;44.570;18.610;2023-08-20T05:39:10;8.10;;;5.40;;
78183;SDS011;67442;44.570;18.610;2023-08-20T05:41:37;10.02;;;5.68;;
78183;SDS011;67442;44.570;18.610;2023-08-20T05:44:05;7.65;;;5.07;;
78183;SDS011;67442;44.570;18.610;2023-08-20T05:46:32;8.38;;;4.90;;
78183;SDS011;67442;44.570;18.610;2023-08-20T05:49:00;8.50;;;5.28;;
78183;SDS011;67442;44.570;18.610;2023-08-20T05:51:27;8.65;;;5.40;;
78183;SDS011;67442;44.570;18.610;2023-08-20T05:53:55;10.82;;;5.18;;
78183;SDS011;67442;44.570;18.610;2023-08-20T05:56:22;8.23;;;5.43;;
78183;SDS011;67442;44.570;18.610;2023-08-20T05:58:49;9.15;;;5.90;;
78183;SDS011;67442;44.570;18.610;2023-08-20T06:01:16;9.05;;;5.80;;
78183;SDS011;67442;44.570;18.610;2023-08-20T06:03:47;8.93;;;5.30;;
78183;SDS011;67442;44.570;18.610;2023-08-20T06:06:15;8.80;;;5.35;;
78183;SDS011;67442;44.570;18.610;2023-08-20T06:08:42;6.97;;;5.10;;
78183;SDS011;67442;44.570;18.610;2023-08-20T06:11:13;9.05;;;5.35;;
78183;SDS011;67442;44.570;18.610;2023-08-20T06:13:41;8.48;;;5.63;;
78183;SDS011;67442;44.570;18.610;2023-08-20T06:16:11;8.77;;;5.60;;
78183;SDS011;67442;44.570;18.610;2023-08-20T06:18:39;9.50;;;5.43;;
78183;SDS011;67442;44.570;18.610;2023-08-20T06:21:10;8.27;;;4.97;;
78183;SDS011;67442;44.570;18.610;2023-08-20T06:23:38;9.43;;;5.60;;
78183;SDS011;67442;44.570;18.610;2023-08-20T06:26:06;8.93;;;5.75;;
78183;SDS011;67442;44.570;18.610;2023-08-20T06:28:33;9.25;;;5.88;;
78183;SDS011;67442;44.570;18.610;2023-08-20T06:31:01;8.73;;;6.05;;
78183;SDS011;67442;44.570;18.610;2023-08-20T06:33:32;10.48;;;6.95;;
78183;SDS011;67442;44.570;18.610;2023-08-20T06:35:59;10.63;;;7.30;;
78183;SDS011;67442;44.570;18.610;2023-08-20T06:38:27;10.52;;;6.95;;
78183;SDS011;67442;44.570;18.610;2023-08-20T06:40:58;12.05;;;7.68;;
78183;SDS011;67442;44.570;18.610;2023-08-20T06:43:30;16.35;;;8.45;;
78183;SDS011;67442;44.570;18.610;2023-08-20T06:45:57;16.08;;;8.77;;
78183;SDS011;67442;44.570;18.610;2023-08-20T06:48:24;16.58;;;9.30;;
78183;SDS011;67442;44.570;18.610;2023-08-20T06:50:52;17.40;;;9.48;;
78183;SDS011;67442;44.570;18.610;2023-08-20T06:53:19;19.73;;;10.77;;
78183;SDS011;67442;44.570;18.610;2023-08-20T06:55:47;20.67;;;10.40;;
78183;SDS011;67442;44.570;18.610;2023-08-20T06:58:15;19.80;;;10.75;;
78183;SDS011;67442;44.570;18.610;2023-08-20T07:00:42;20.77;;;11.00;;
78183;SDS011;67442;44.570;18.610;2023-08-20T07:03:10;20.10;;;10.95;;
78183;SDS011;67442;44.570;18.610;2023-08-20T07:05:41;19.98;;;11.90;;
78183;SDS011;67442;44.570;18.610;2023-08-20T07:08:12;24.17;;;12.25;;
78183;SDS011;67442;44.570;18.610;2023-08-20T07:10:39;21.75;;;12.43;;
78183;SDS011;67442;44.570;18.610;2023-08-20T07:13:07;37.65;;;17.52;;
78183;SDS011;67442;44.570;18.610;2023-08-20T07:15:34;39.20;;;19.65;;
78183;SDS011;67442;44.570;18.610;2023-08-20T07:18:05;53.72;;;23.30;;
78183;SDS011;67442;44.570;18.610;2023-08-20T07:20:36;64.35;;;26.25;;
78183;SDS011;67442;44.570;18.610;2023-08-20T07:23:04;67.90;;;28.15;;
78183;SDS011;67442;44.570;18.610;2023-08-20T07:25:31;69.78;;;29.75;;
78183;SDS011;67442;44.570;18.610;2023-08-20T07:28:02;60.42;;;27.45;;
78183;SDS011;67442;44.570;18.610;2023-08-20T07:30:31;62.28;;;27.55;;
78183;SDS011;67442;44.570;18.610;2023-08-20T07:33:02;61.95;;;26.55;;
78183;SDS011;67442;44.570;18.610;2023-08-20T07:35:30;56.13;;;24.48;;
78183;SDS011;67442;44.570;18.610;2023-08-20T07:38:01;51.13;;;24.60;;
78183;SDS011;67442;44.570;18.610;2023-08-20T07:40:29;52.38;;;23.20;;
78183;SDS011;67442;44.570;18.610;2023-08-20T07:42:56;41.30;;;21.05;;
78183;SDS011;67442;44.570;18.610;2023-08-20T07:45:24;42.20;;;20.17;;
78183;SDS011;67442;44.570;18.610;2023-08-20T07:47:51;38.65;;;20.02;;
78183;SDS011;67442;44.570;18.610;2023-08-20T07:50:19;34.03;;;18.90;;
78183;SDS011;67442;44.570;18.610;2023-08-20T07:52:46;29.92;;;17.38;;
78183;SDS011;67442;44.570;18.610;2023-08-20T07:55:13;30.15;;;16.10;;
78183;SDS011;67442;44.570;18.610;2023-08-20T07:57:40;26.08;;;15.65;;
78183;SDS011;67442;44.570;18.610;2023-08-20T08:00:12;24.77;;;15.15;;
78183;SDS011;67442;44.570;18.610;2023-08-20T08:02:42;25.38;;;13.95;;
78183;SDS011;67442;44.570;18.610;2023-08-20T08:05:13;24.05;;;13.82;;
78183;SDS011;67442;44.570;18.610;2023-08-20T08:07:41;21.77;;;14.00;;
78183;SDS011;67442;44.570;18.610;2023-08-20T08:10:08;20.42;;;13.60;;
78183;SDS011;67442;44.570;18.610;2023-08-20T08:12:36;21.27;;;12.98;;
78183;SDS011;67442;44.570;18.610;2023-08-20T08:15:04;20.25;;;13.63;;
78183;SDS011;67442;44.570;18.610;2023-08-20T08:17:32;16.85;;;12.10;;
78183;SDS011;67442;44.570;18.610;2023-08-20T08:20:00;19.52;;;12.82;;
78183;SDS011;67442;44.570;18.610;2023-08-20T08:22:31;16.08;;;11.50;;
78183;SDS011;67442;44.570;18.610;2023-08-20T08:25:01;16.52;;;11.82;;
78183;SDS011;67442;44.570;18.610;2023-08-20T08:27:29;14.35;;;11.13;;
78183;SDS011;67442;44.570;18.610;2023-08-20T08:29:56;16.38;;;11.50;;
78183;SDS011;67442;44.570;18.610;2023-08-20T08:32:27;15.18;;;10.77;;
78183;SDS011;67442;44.570;18.610;2023-08-20T08:34:54;16.65;;;11.82;;
78183;SDS011;67442;44.570;18.610;2023-08-20T08:37:22;13.25;;;10.40;;
78183;SDS011;67442;44.570;18.610;2023-08-20T08:39:53;14.15;;;10.75;;
78183;SDS011;67442;44.570;18.610;2023-08-20T08:42:21;15.07;;;10.90;;
78183;SDS011;67442;44.570;18.610;2023-08-20T08:44:51;14.90;;;11.07;;
78183;SDS011;67442;44.570;18.610;2023-08-20T08:47:19;15.68;;;10.88;;
78183;SDS011;67442;44.570;18.610;2023-08-20T08:49:52;13.52;;;10.57;;
78183;SDS011;67442;44.570;18.610;2023-08-20T08:52:22;13.88;;;10.55;;
78183;SDS011;67442;44.570;18.610;2023-08-20T08:54:49;12.50;;;10.23;;
78183;SDS011;67442;44.570;18.610;2023-08-20T08:57:16;12.80;;;10.27;;
78183;SDS011;67442;44.570;18.610;2023-08-20T08:59:43;11.57;;;9.45;;
78183;SDS011;67442;44.570;18.610;2023-08-20T09:02:11;12.77;;;10.20;;
78183;SDS011;67442;44.570;18.610;2023-08-20T09:04:39;14.07;;;10.45;;
78183;SDS011;67442;44.570;18.610;2023-08-20T09:07:10;11.85;;;9.82;;
78183;SDS011;67442;44.570;18.610;2023-08-20T09:09:42;14.73;;;11.13;;
78183;SDS011;67442;44.570;18.610;2023-08-20T09:12:15;11.40;;;9.25;;
78183;SDS011;67442;44.570;18.610;2023-08-20T09:14:48;12.80;;;10.57;;
78183;SDS011;67442;44.570;18.610;2023-08-20T09:17:16;12.52;;;9.70;;
78183;SDS011;67442;44.570;18.610;2023-08-20T09:19:47;11.52;;;9.88;;
78183;SDS011;67442;44.570;18.610;2023-08-20T09:22:14;13.63;;;10.48;;
78183;SDS011;67442;44.570;18.610;2023-08-20T09:24:45;15.40;;;11.00;;
78183;SDS011;67442;44.570;18.610;2023-08-20T09:27:20;13.07;;;10.50;;
78183;SDS011;67442;44.570;18.610;2023-08-20T09:32:19;13.25;;;10.57;;
78183;SDS011;67442;44.570;18.610;2023-08-20T09:34:48;13.93;;;11.25;;
78183;SDS011;67442;44.570;18.610;2023-08-20T09:37:17;16.08;;;11.40;;
78183;SDS011;67442;44.570;18.610;2023-08-20T09:39:50;14.50;;;11.03;;
78183;SDS011;67442;44.570;18.610;2023-08-20T09:42:17;17.27;;;11.32;;
78183;SDS011;67442;44.570;18.610;2023-08-20T09:44:45;14.70;;;11.30;;
78183;SDS011;67442;44.570;18.610;2023-08-20T09:47:13;15.30;;;11.07;;
78183;SDS011;67442;44.570;18.610;2023-08-20T09:49:45;16.42;;;11.70;;
78183;SDS011;67442;44.570;18.610;2023-08-20T09:52:17;14.23;;;11.55;;
78183;SDS011;67442;44.570;18.610;2023-08-20T09:57:23;12.82;;;10.75;;
78183;SDS011;67442;44.570;18.610;2023-08-20T10:00:16;18.63;;;11.25;;
78183;SDS011;67442;44.570;18.610;2023-08-20T10:02:43;13.23;;;10.98;;
78183;SDS011;67442;44.570;18.610;2023-08-20T10:05:11;15.02;;;10.68;;
78183;SDS011;67442;44.570;18.610;2023-08-20T10:07:44;13.80;;;10.90;;
78183;SDS011;67442;44.570;18.610;2023-08-20T10:10:17;13.82;;;10.27;;
78183;SDS011;67442;44.570;18.610;2023-08-20T10:12:44;14.23;;;10.80;;
78183;SDS011;67442;44.570;18.610;2023-08-20T10:15:14;16.60;;;11.82;;
78183;SDS011;67442;44.570;18.610;2023-08-20T10:17:45;18.63;;;12.98;;
78183;SDS011;67442;44.570;18.610;2023-08-20T10:20:13;15.48;;;12.02;;
78183;SDS011;67442;44.570;18.610;2023-08-20T10:23:00;20.88;;;12.90;;
78183;SDS011;67442;44.570;18.610;2023-08-20T10:25:29;15.50;;;11.77;;
78183;SDS011;67442;44.570;18.610;2023-08-20T10:28:12;17.42;;;11.88;;
78183;SDS011;67442;44.570;18.610;2023-08-20T10:30:39;16.65;;;12.10;;
78183;SDS011;67442;44.570;18.610;2023-08-20T10:33:29;18.83;;;12.48;;
78183;SDS011;67442;44.570;18.610;2023-08-20T10:35:57;16.55;;;12.32;;
78183;SDS011;67442;44.570;18.610;2023-08-20T10:38:35;15.70;;;12.50;;
78183;SDS011;67442;44.570;18.610;2023-08-20T10:41:02;16.58;;;12.50;;
78183;SDS011;67442;44.570;18.610;2023-08-20T10:43:34;14.55;;;11.98;;
78183;SDS011;67442;44.570;18.610;2023-08-20T10:46:25;15.10;;;11.95;;
78183;SDS011;67442;44.570;18.610;2023-08-20T10:48:56;17.48;;;12.18;;
78183;SDS011;67442;44.570;18.610;2023-08-20T11:01:52;15.95;;;11.15;;
78183;SDS011;67442;44.570;18.610;2023-08-20T11:04:30;13.63;;;10.68;;
78183;SDS011;67442;44.570;18.610;2023-08-20T11:07:02;15.98;;;11.38;;
78183;SDS011;67442;44.570;18.610;2023-08-20T11:09:31;17.92;;;11.25;;
78183;SDS011;67442;44.570;18.610;2023-08-20T11:11:58;16.02;;;11.70;;
78183;SDS011;67442;44.570;18.610;2023-08-20T11:14:26;17.08;;;11.02;;
78183;SDS011;67442;44.570;18.610;2023-08-20T11:16:57;14.63;;;10.68;;
78183;SDS011;67442;44.570;18.610;2023-08-20T11:19:24;16.45;;;11.43;;
78183;SDS011;67442;44.570;18.610;2023-08-20T11:21:56;15.13;;;10.65;;
78183;SDS011;67442;44.570;18.610;2023-08-20T11:24:27;16.50;;;11.15;;
78183;SDS011;67442;44.570;18.610;2023-08-20T11:26:55;17.15;;;11.00;;
78183;SDS011;67442;44.570;18.610;2023-08-20T11:29:22;14.13;;;11.05;;
78183;SDS011;67442;44.570;18.610;2023-08-20T11:31:51;13.98;;;10.60;;
78183;SDS011;67442;44.570;18.610;2023-08-20T11:34:18;14.25;;;10.65;;
78183;SDS011;67442;44.570;18.610;2023-08-20T11:36:46;12.65;;;10.00;;
78183;SDS011;67442;44.570;18.610;2023-08-20T11:39:13;14.80;;;10.50;;
78183;SDS011;67442;44.570;18.610;2023-08-20T11:41:44;15.57;;;10.68;;
78183;SDS011;67442;44.570;18.610;2023-08-20T11:44:19;13.93;;;10.57;;
78183;SDS011;67442;44.570;18.610;2023-08-20T11:46:50;15.05;;;10.70;;
78183;SDS011;67442;44.570;18.610;2023-08-20T11:49:26;16.38;;;10.48;;
78183;SDS011;67442;44.570;18.610;2023-08-20T11:51:55;13.38;;;9.80;;
78183;SDS011;67442;44.570;18.610;2023-08-20T11:54:22;13.00;;;9.43;;
78183;SDS011;67442;44.570;18.610;2023-08-20T11:56:51;15.68;;;9.85;;
78183;SDS011;67442;44.570;18.610;2023-08-20T11:59:22;13.70;;;10.02;;
78183;SDS011;67442;44.570;18.610;2023-08-20T12:01:59;14.25;;;9.68;;
78183;SDS011;67442;44.570;18.610;2023-08-20T12:04:31;14.88;;;10.20;;
78183;SDS011;67442;44.570;18.610;2023-08-20T12:09:49;14.40;;;10.02;;
78183;SDS011;67442;44.570;18.610;2023-08-20T12:12:18;15.98;;;9.68;;
78183;SDS011;67442;44.570;18.610;2023-08-20T12:14:49;12.90;;;9.52;;
78183;SDS011;67442;44.570;18.610;2023-08-20T12:17:20;13.93;;;9.27;;
78183;SDS011;67442;44.570;18.610;2023-08-20T12:19:48;12.45;;;9.07;;
78183;SDS011;67442;44.570;18.610;2023-08-20T12:22:19;12.30;;;9.07;;
78183;SDS011;67442;44.570;18.610;2023-08-20T12:24:46;12.02;;;9.02;;
78183;SDS011;67442;44.570;18.610;2023-08-20T12:27:17;13.02;;;9.15;;
78183;SDS011;67442;44.570;18.610;2023-08-20T12:29:44;14.80;;;9.30;;
78183;SDS011;67442;44.570;18.610;2023-08-20T12:32:13;14.63;;;9.60;;
78183;SDS011;67442;44.570;18.610;2023-08-20T12:34:45;13.38;;;9.45;;
78183;SDS011;67442;44.570;18.610;2023-08-20T12:37:12;14.23;;;9.90;;
78183;SDS011;67442;44.570;18.610;2023-08-20T12:39:40;11.70;;;9.15;;
78183;SDS011;67442;44.570;18.610;2023-08-20T12:42:11;14.45;;;9.40;;
78183;SDS011;67442;44.570;18.610;2023-08-20T12:44:39;11.82;;;9.70;;
78183;SDS011;67442;44.570;18.610;2023-08-20T12:47:06;12.73;;;9.55;;
78183;SDS011;67442;44.570;18.610;2023-08-20T12:49:34;12.48;;;9.27;;
78183;SDS011;67442;44.570;18.610;2023-08-20T12:52:01;11.80;;;9.25;;
78183;SDS011;67442;44.570;18.610;2023-08-20T12:54:28;12.70;;;9.00;;
78183;SDS011;67442;44.570;18.610;2023-08-20T12:56:56;11.98;;;8.98;;
78183;SDS011;67442;44.570;18.610;2023-08-20T12:59:22;13.93;;;8.20;;
78183;SDS011;67442;44.570;18.610;2023-08-20T13:01:49;11.02;;;8.48;;
78183;SDS011;67442;44.570;18.610;2023-08-20T13:04:17;10.80;;;8.65;;
78183;SDS011;67442;44.570;18.610;2023-08-20T13:06:46;12.00;;;8.70;;
78183;SDS011;67442;44.570;18.610;2023-08-20T13:09:14;11.57;;;8.00;;
78183;SDS011;67442;44.570;18.610;2023-08-20T13:11:42;11.27;;;9.02;;
78183;SDS011;67442;44.570;18.610;2023-08-20T13:14:10;11.25;;;9.15;;
78183;SDS011;67442;44.570;18.610;2023-08-20T13:16:38;13.80;;;8.48;;
78183;SDS011;67442;44.570;18.610;2023-08-20T13:19:07;12.05;;;8.43;;
78183;SDS011;67442;44.570;18.610;2023-08-20T13:21:35;11.38;;;8.55;;
78183;SDS011;67442;44.570;18.610;2023-08-20T13:24:06;12.88;;;8.75;;
78183;SDS011;67442;44.570;18.610;2023-08-20T13:26:38;9.70;;;7.78;;
78183;SDS011;67442;44.570;18.610;2023-08-20T13:29:05;16.65;;;8.98;;
78183;SDS011;67442;44.570;18.610;2023-08-20T13:31:33;12.25;;;8.70;;
78183;SDS011;67442;44.570;18.610;2023-08-20T13:34:01;13.75;;;8.45;;
78183;SDS011;67442;44.570;18.610;2023-08-20T13:36:28;12.65;;;8.38;;
78183;SDS011;67442;44.570;18.610;2023-08-20T13:38:56;11.38;;;8.80;;
78183;SDS011;67442;44.570;18.610;2023-08-20T13:41:23;14.38;;;8.45;;
78183;SDS011;67442;44.570;18.610;2023-08-20T13:43:50;10.63;;;8.30;;
78183;SDS011;67442;44.570;18.610;2023-08-20T13:46:19;12.68;;;8.10;;
78183;SDS011;67442;44.570;18.610;2023-08-20T13:48:46;10.88;;;8.23;;
78183;SDS011;67442;44.570;18.610;2023-08-20T13:51:13;11.77;;;8.25;;
78183;SDS011;67442;44.570;18.610;2023-08-20T13:53:41;11.27;;;7.63;;
78183;SDS011;67442;44.570;18.610;2023-08-20T13:56:08;11.15;;;7.90;;
78183;SDS011;67442;44.570;18.610;2023-08-20T13:58:35;9.68;;;7.90;;
78183;SDS011;67442;44.570;18.610;2023-08-20T14:01:03;11.68;;;8.30;;
78183;SDS011;67442;44.570;18.610;2023-08-20T14:03:32;11.90;;;7.68;;
78183;SDS011;67442;44.570;18.610;2023-08-20T14:05:59;10.77;;;7.70;;
78183;SDS011;67442;44.570;18.610;2023-08-20T14:08:31;9.27;;;7.47;;
78183;SDS011;67442;44.570;18.610;2023-08-20T14:10:58;11.10;;;7.93;;
78183;SDS011;67442;44.570;18.610;2023-08-20T14:13:26;11.68;;;8.20;;
78183;SDS011;67442;44.570;18.610;2023-08-20T14:15:53;10.15;;;7.88;;
78183;SDS011;67442;44.570;18.610;2023-08-20T14:18:23;8.75;;;7.55;;
78183;SDS011;67442;44.570;18.610;2023-08-20T14:20:51;10.07;;;7.78;;
78183;SDS011;67442;44.570;18.610;2023-08-20T14:23:19;12.82;;;7.82;;
78183;SDS011;67442;44.570;18.610;2023-08-20T14:25:46;9.48;;;7.43;;
78183;SDS011;67442;44.570;18.610;2023-08-20T14:28:18;9.77;;;7.53;;
78183;SDS011;67442;44.570;18.610;2023-08-20T14:30:45;12.50;;;7.93;;
78183;SDS011;67442;44.570;18.610;2023-08-20T14:33:15;8.60;;;7.03;;
78183;SDS011;67442;44.570;18.610;2023-08-20T14:35:46;10.73;;;7.57;;
78183;SDS011;67442;44.570;18.610;2023-08-20T14:38:13;14.25;;;7.53;;
78183;SDS011;67442;44.570;18.610;2023-08-20T14:40:41;9.70;;;7.47;;
78183;SDS011;67442;44.570;18.610;2023-08-20T14:43:11;10.63;;;8.20;;
78183;SDS011;67442;44.570;18.610;2023-08-20T14:45:38;10.23;;;7.10;;
78183;SDS011;67442;44.570;18.610;2023-08-20T14:48:09;9.77;;;7.72;;
78183;SDS011;67442;44.570;18.610;2023-08-20T14:50:36;11.80;;;7.80;;